sensor_id;sensor_type;location;lat;lon;timestamp;P1;durP1;ratioP1;P2;durP2;ratioP2
50291;SDS011;36190;54.980;73.388;2022-09-12T00:01:17;4.63;;;1.58;;
50291;SDS011;36190;54.980;73.388;2022-09-12T00:03:47;1.80;;;1.70;;
50291;SDS011;36190;54.980;73.388;2022-09-12T00:06:18;3.90;;;1.67;;
50291;SDS011;36190;54.980;73.388;2022-09-12T00:08:46;4.38;;;1.80;;
50291;SDS011;36190;54.980;73.388;2022-09-12T00:11:14;4.07;;;1.90;;
50291;SDS011;36190;54.980;73.388;2022-09-12T00:13:41;3.47;;;1.90;;
50291;SDS011;36190;54.980;73.388;2022-09-12T00:16:15;3.83;;;1.80;;
50291;SDS011;36190;54.980;73.388;2022-09-12T00:18:44;2.95;;;1.42;;
50291;SDS011;36190;54.980;73.388;2022-09-12T00:21:14;1.80;;;1.40;;
50291;SDS011;36190;54.980;73.388;2022-09-12T00:23:41;2.58;;;1.60;;
50291;SDS011;36190;54.980;73.388;2022-09-12T00:26:09;3.85;;;1.95;;
50291;SDS011;36190;54.980;73.388;2022-09-12T00:28:37;4.90;;;2.05;;
50291;SDS011;36190;54.980;73.388;2022-09-12T00:31:05;1.60;;;1.50;;
50291;SDS011;36190;54.980;73.388;2022-09-12T00:33:34;4.65;;;1.85;;
50291;SDS011;36190;54.980;73.388;2022-09-12T00:36:03;2.58;;;1.70;;
50291;SDS011;36190;54.980;73.388;2022-09-12T00:38:33;4.47;;;1.90;;
50291;SDS011;36190;54.980;73.388;2022-09-12T00:41:03;4.50;;;1.90;;
50291;SDS011;36190;54.980;73.388;2022-09-12T00:43:34;3.15;;;1.85;;
50291;SDS011;36190;54.980;73.388;2022-09-12T00:46:06;5.88;;;2.20;;
50291;SDS011;36190;54.980;73.388;2022-09-12T00:48:43;4.32;;;2.03;;
50291;SDS011;36190;54.980;73.388;2022-09-12T00:51:16;5.85;;;2.05;;
50291;SDS011;36190;54.980;73.388;2022-09-12T00:53:46;6.00;;;2.35;;
50291;SDS011;36190;54.980;73.388;2022-09-12T00:56:16;6.68;;;2.47;;
50291;SDS011;36190;54.980;73.388;2022-09-12T00:58:46;4.70;;;2.20;;
50291;SDS011;36190;54.980;73.388;2022-09-12T01:01:19;6.47;;;2.15;;
50291;SDS011;36190;54.980;73.388;2022-09-12T01:03:46;5.30;;;2.38;;
50291;SDS011;36190;54.980;73.388;2022-09-12T01:06:15;5.95;;;2.35;;
50291;SDS011;36190;54.980;73.388;2022-09-12T01:08:47;5.78;;;2.72;;
50291;SDS011;36190;54.980;73.388;2022-09-12T01:11:16;6.80;;;2.72;;
50291;SDS011;36190;54.980;73.388;2022-09-12T01:13:45;6.65;;;2.65;;
50291;SDS011;36190;54.980;73.388;2022-09-12T01:16:13;7.32;;;2.83;;
50291;SDS011;36190;54.980;73.388;2022-09-12T01:18:44;6.43;;;2.38;;
50291;SDS011;36190;54.980;73.388;2022-09-12T01:21:22;8.18;;;2.70;;
50291;SDS011;36190;54.980;73.388;2022-09-12T01:30:18;6.43;;;3.00;;
50291;SDS011;36190;54.980;73.388;2022-09-12T01:36:14;6.13;;;2.70;;
50291;SDS011;36190;54.980;73.388;2022-09-12T01:39:00;6.28;;;2.55;;
50291;SDS011;36190;54.980;73.388;2022-09-12T01:41:31;7.05;;;2.90;;
50291;SDS011;36190;54.980;73.388;2022-09-12T01:44:08;6.05;;;2.63;;
50291;SDS011;36190;54.980;73.388;2022-09-12T01:46:51;9.80;;;2.67;;
50291;SDS011;36190;54.980;73.388;2022-09-12T01:49:24;5.55;;;2.53;;
50291;SDS011;36190;54.980;73.388;2022-09-12T01:51:58;6.57;;;2.85;;
50291;SDS011;36190;54.980;73.388;2022-09-12T01:54:31;6.75;;;2.78;;
50291;SDS011;36190;54.980;73.388;2022-09-12T01:59:36;8.68;;;2.80;;
50291;SDS011;36190;54.980;73.388;2022-09-12T02:02:08;9.23;;;3.22;;
50291;SDS011;36190;54.980;73.388;2022-09-12T02:04:40;7.30;;;2.80;;
50291;SDS011;36190;54.980;73.388;2022-09-12T02:07:14;9.02;;;2.70;;
50291;SDS011;36190;54.980;73.388;2022-09-12T02:09:46;9.63;;;2.63;;
50291;SDS011;36190;54.980;73.388;2022-09-12T02:12:19;9.45;;;2.60;;
50291;SDS011;36190;54.980;73.388;2022-09-12T02:14:50;7.80;;;2.65;;
50291;SDS011;36190;54.980;73.388;2022-09-12T02:17:22;10.65;;;2.85;;
50291;SDS011;36190;54.980;73.388;2022-09-12T02:19:52;7.88;;;2.83;;
50291;SDS011;36190;54.980;73.388;2022-09-12T02:22:23;6.25;;;2.53;;
50291;SDS011;36190;54.980;73.388;2022-09-12T02:24:54;8.80;;;2.88;;
50291;SDS011;36190;54.980;73.388;2022-09-12T02:27:25;7.93;;;2.10;;
50291;SDS011;36190;54.980;73.388;2022-09-12T02:29:58;6.65;;;2.33;;
50291;SDS011;36190;54.980;73.388;2022-09-12T02:32:29;4.10;;;2.40;;
50291;SDS011;36190;54.980;73.388;2022-09-12T02:35:00;5.07;;;2.17;;
50291;SDS011;36190;54.980;73.388;2022-09-12T02:37:42;5.35;;;2.10;;
50291;SDS011;36190;54.980;73.388;2022-09-12T02:40:14;9.20;;;2.55;;
50291;SDS011;36190;54.980;73.388;2022-09-12T02:42:43;6.00;;;2.53;;
50291;SDS011;36190;54.980;73.388;2022-09-12T02:45:11;4.43;;;2.10;;
50291;SDS011;36190;54.980;73.388;2022-09-12T02:47:42;4.43;;;2.13;;
50291;SDS011;36190;54.980;73.388;2022-09-12T02:50:13;4.55;;;2.10;;
50291;SDS011;36190;54.980;73.388;2022-09-12T02:52:40;4.05;;;2.05;;
50291;SDS011;36190;54.980;73.388;2022-09-12T02:55:09;7.70;;;2.30;;
50291;SDS011;36190;54.980;73.388;2022-09-12T02:57:37;7.25;;;2.42;;
50291;SDS011;36190;54.980;73.388;2022-09-12T03:00:05;6.45;;;2.35;;
50291;SDS011;36190;54.980;73.388;2022-09-12T03:02:43;5.95;;;2.35;;
50291;SDS011;36190;54.980;73.388;2022-09-12T03:05:22;5.20;;;2.20;;
50291;SDS011;36190;54.980;73.388;2022-09-12T03:07:58;5.53;;;2.30;;
50291;SDS011;36190;54.980;73.388;2022-09-12T03:10:40;5.95;;;2.50;;
50291;SDS011;36190;54.980;73.388;2022-09-12T03:13:19;6.50;;;2.67;;
50291;SDS011;36190;54.980;73.388;2022-09-12T03:15:53;4.50;;;2.30;;
50291;SDS011;36190;54.980;73.388;2022-09-12T03:18:41;10.20;;;2.60;;
50291;SDS011;36190;54.980;73.388;2022-09-12T03:21:18;3.70;;;1.83;;
50291;SDS011;36190;54.980;73.388;2022-09-12T03:26:27;3.00;;;1.80;;
50291;SDS011;36190;54.980;73.388;2022-09-12T03:28:58;6.95;;;2.05;;
50291;SDS011;36190;54.980;73.388;2022-09-12T03:31:29;3.95;;;1.83;;
50291;SDS011;36190;54.980;73.388;2022-09-12T03:33:58;6.88;;;2.30;;
50291;SDS011;36190;54.980;73.388;2022-09-12T03:36:26;3.03;;;1.80;;
50291;SDS011;36190;54.980;73.388;2022-09-12T03:38:54;3.60;;;1.88;;
50291;SDS011;36190;54.980;73.388;2022-09-12T03:41:22;4.38;;;1.88;;
50291;SDS011;36190;54.980;73.388;2022-09-12T03:43:49;6.38;;;2.35;;
50291;SDS011;36190;54.980;73.388;2022-09-12T03:46:16;6.32;;;2.13;;
50291;SDS011;36190;54.980;73.388;2022-09-12T03:48:44;4.35;;;1.90;;
50291;SDS011;36190;54.980;73.388;2022-09-12T03:51:12;4.90;;;2.00;;
50291;SDS011;36190;54.980;73.388;2022-09-12T03:53:40;4.25;;;1.80;;
50291;SDS011;36190;54.980;73.388;2022-09-12T03:56:08;5.72;;;1.75;;
50291;SDS011;36190;54.980;73.388;2022-09-12T03:58:36;4.93;;;1.90;;
50291;SDS011;36190;54.980;73.388;2022-09-12T04:01:07;5.65;;;2.00;;
50291;SDS011;36190;54.980;73.388;2022-09-12T04:03:37;6.57;;;2.10;;
50291;SDS011;36190;54.980;73.388;2022-09-12T04:06:05;4.22;;;1.80;;
50291;SDS011;36190;54.980;73.388;2022-09-12T04:08:35;4.10;;;1.92;;
50291;SDS011;36190;54.980;73.388;2022-09-12T04:11:03;5.70;;;1.95;;
50291;SDS011;36190;54.980;73.388;2022-09-12T04:13:31;2.88;;;1.63;;
50291;SDS011;36190;54.980;73.388;2022-09-12T04:16:00;10.50;;;3.45;;
50291;SDS011;36190;54.980;73.388;2022-09-12T04:18:28;4.07;;;2.10;;
50291;SDS011;36190;54.980;73.388;2022-09-12T04:20:56;6.07;;;1.90;;
50291;SDS011;36190;54.980;73.388;2022-09-12T04:23:24;8.52;;;2.30;;
50291;SDS011;36190;54.980;73.388;2022-09-12T04:25:56;3.28;;;1.80;;
50291;SDS011;36190;54.980;73.388;2022-09-12T04:28:25;3.83;;;1.48;;
50291;SDS011;36190;54.980;73.388;2022-09-12T04:30:54;2.38;;;1.50;;
50291;SDS011;36190;54.980;73.388;2022-09-12T04:33:22;3.90;;;1.45;;
50291;SDS011;36190;54.980;73.388;2022-09-12T04:35:49;2.40;;;1.40;;
50291;SDS011;36190;54.980;73.388;2022-09-12T04:38:17;3.47;;;1.70;;
50291;SDS011;36190;54.980;73.388;2022-09-12T04:40:44;5.93;;;2.17;;
50291;SDS011;36190;54.980;73.388;2022-09-12T04:43:13;4.72;;;1.38;;
50291;SDS011;36190;54.980;73.388;2022-09-12T04:45:40;3.17;;;1.42;;
50291;SDS011;36190;54.980;73.388;2022-09-12T04:48:08;2.97;;;1.50;;
50291;SDS011;36190;54.980;73.388;2022-09-12T04:50:35;3.15;;;1.50;;
50291;SDS011;36190;54.980;73.388;2022-09-12T04:53:03;2.60;;;1.42;;
50291;SDS011;36190;54.980;73.388;2022-09-12T04:55:30;6.15;;;2.35;;
50291;SDS011;36190;54.980;73.388;2022-09-12T04:58:00;10.15;;;3.00;;
50291;SDS011;36190;54.980;73.388;2022-09-12T05:00:29;3.45;;;1.83;;
50291;SDS011;36190;54.980;73.388;2022-09-12T05:02:56;3.42;;;1.35;;
50291;SDS011;36190;54.980;73.388;2022-09-12T05:05:24;3.38;;;1.63;;
50291;SDS011;36190;54.980;73.388;2022-09-12T05:07:51;3.42;;;1.48;;
50291;SDS011;36190;54.980;73.388;2022-09-12T05:10:19;2.25;;;1.42;;
50291;SDS011;36190;54.980;73.388;2022-09-12T05:12:48;4.60;;;1.73;;
50291;SDS011;36190;54.980;73.388;2022-09-12T05:15:15;2.38;;;1.40;;
50291;SDS011;36190;54.980;73.388;2022-09-12T05:17:44;3.17;;;1.42;;
50291;SDS011;36190;54.980;73.388;2022-09-12T05:20:11;3.22;;;1.40;;
50291;SDS011;36190;54.980;73.388;2022-09-12T05:22:38;1.75;;;1.45;;
50291;SDS011;36190;54.980;73.388;2022-09-12T05:25:06;1.52;;;1.13;;
50291;SDS011;36190;54.980;73.388;2022-09-12T05:27:34;4.03;;;1.77;;
50291;SDS011;36190;54.980;73.388;2022-09-12T05:30:02;2.17;;;1.30;;
50291;SDS011;36190;54.980;73.388;2022-09-12T05:32:31;4.35;;;1.40;;
50291;SDS011;36190;54.980;73.388;2022-09-12T05:35:00;3.97;;;1.85;;
50291;SDS011;36190;54.980;73.388;2022-09-12T05:37:27;2.30;;;1.55;;
50291;SDS011;36190;54.980;73.388;2022-09-12T05:39:54;5.90;;;1.80;;
50291;SDS011;36190;54.980;73.388;2022-09-12T05:42:24;5.30;;;2.22;;
50291;SDS011;36190;54.980;73.388;2022-09-12T05:44:51;2.40;;;1.38;;
50291;SDS011;36190;54.980;73.388;2022-09-12T05:47:18;2.08;;;1.33;;
50291;SDS011;36190;54.980;73.388;2022-09-12T05:49:46;0.88;;;0.88;;
50291;SDS011;36190;54.980;73.388;2022-09-12T05:52:17;2.25;;;1.02;;
50291;SDS011;36190;54.980;73.388;2022-09-12T05:54:44;2.10;;;1.25;;
50291;SDS011;36190;54.980;73.388;2022-09-12T05:57:12;2.88;;;1.80;;
50291;SDS011;36190;54.980;73.388;2022-09-12T05:59:39;4.65;;;1.55;;
50291;SDS011;36190;54.980;73.388;2022-09-12T06:02:07;1.67;;;1.40;;
50291;SDS011;36190;54.980;73.388;2022-09-12T06:04:38;2.83;;;1.70;;
50291;SDS011;36190;54.980;73.388;2022-09-12T06:07:06;1.90;;;1.13;;
50291;SDS011;36190;54.980;73.388;2022-09-12T06:09:35;1.02;;;1.02;;
50291;SDS011;36190;54.980;73.388;2022-09-12T06:12:02;1.45;;;1.10;;
50291;SDS011;36190;54.980;73.388;2022-09-12T06:14:30;3.00;;;1.40;;
50291;SDS011;36190;54.980;73.388;2022-09-12T06:16:57;2.75;;;1.38;;
50291;SDS011;36190;54.980;73.388;2022-09-12T06:19:25;4.28;;;1.73;;
50291;SDS011;36190;54.980;73.388;2022-09-12T06:21:52;1.10;;;1.10;;
50291;SDS011;36190;54.980;73.388;2022-09-12T06:24:20;2.10;;;1.48;;
50291;SDS011;36190;54.980;73.388;2022-09-12T06:26:49;2.67;;;1.50;;
50291;SDS011;36190;54.980;73.388;2022-09-12T06:29:17;4.05;;;1.40;;
50291;SDS011;36190;54.980;73.388;2022-09-12T06:31:44;1.13;;;1.13;;
50291;SDS011;36190;54.980;73.388;2022-09-12T06:34:12;7.43;;;2.15;;
50291;SDS011;36190;54.980;73.388;2022-09-12T06:36:41;3.63;;;1.48;;
50291;SDS011;36190;54.980;73.388;2022-09-12T06:39:10;2.90;;;1.48;;
50291;SDS011;36190;54.980;73.388;2022-09-12T06:41:39;1.40;;;1.23;;
50291;SDS011;36190;54.980;73.388;2022-09-12T06:44:08;6.03;;;1.95;;
50291;SDS011;36190;54.980;73.388;2022-09-12T06:46:38;1.50;;;1.35;;
50291;SDS011;36190;54.980;73.388;2022-09-12T06:49:05;4.90;;;1.45;;
50291;SDS011;36190;54.980;73.388;2022-09-12T06:51:33;3.30;;;1.40;;
50291;SDS011;36190;54.980;73.388;2022-09-12T06:54:01;4.95;;;1.73;;
50291;SDS011;36190;54.980;73.388;2022-09-12T06:56:29;5.68;;;2.05;;
50291;SDS011;36190;54.980;73.388;2022-09-12T06:58:57;3.88;;;1.85;;
50291;SDS011;36190;54.980;73.388;2022-09-12T07:01:27;3.33;;;1.42;;
50291;SDS011;36190;54.980;73.388;2022-09-12T07:03:56;3.75;;;1.80;;
50291;SDS011;36190;54.980;73.388;2022-09-12T07:06:25;4.40;;;1.50;;
50291;SDS011;36190;54.980;73.388;2022-09-12T07:08:56;2.67;;;1.45;;
50291;SDS011;36190;54.980;73.388;2022-09-12T07:11:24;3.50;;;1.55;;
50291;SDS011;36190;54.980;73.388;2022-09-12T07:13:53;5.55;;;1.83;;
50291;SDS011;36190;54.980;73.388;2022-09-12T07:16:22;5.45;;;1.17;;
50291;SDS011;36190;54.980;73.388;2022-09-12T07:18:51;2.05;;;1.48;;
50291;SDS011;36190;54.980;73.388;2022-09-12T07:21:20;3.47;;;1.73;;
50291;SDS011;36190;54.980;73.388;2022-09-12T07:23:47;2.60;;;1.50;;
50291;SDS011;36190;54.980;73.388;2022-09-12T07:26:17;6.05;;;1.90;;
50291;SDS011;36190;54.980;73.388;2022-09-12T07:28:44;2.17;;;1.60;;
50291;SDS011;36190;54.980;73.388;2022-09-12T07:31:17;2.25;;;1.20;;
50291;SDS011;36190;54.980;73.388;2022-09-12T07:33:46;1.60;;;1.27;;
50291;SDS011;36190;54.980;73.388;2022-09-12T07:36:17;3.22;;;1.67;;
50291;SDS011;36190;54.980;73.388;2022-09-12T07:38:46;4.00;;;1.42;;
50291;SDS011;36190;54.980;73.388;2022-09-12T07:41:14;1.90;;;1.23;;
50291;SDS011;36190;54.980;73.388;2022-09-12T07:43:45;7.15;;;2.33;;
50291;SDS011;36190;54.980;73.388;2022-09-12T07:46:12;8.80;;;2.00;;
50291;SDS011;36190;54.980;73.388;2022-09-12T07:48:40;11.70;;;4.47;;
50291;SDS011;36190;54.980;73.388;2022-09-12T07:51:09;4.15;;;1.75;;
50291;SDS011;36190;54.980;73.388;2022-09-12T07:53:39;4.13;;;2.20;;
50291;SDS011;36190;54.980;73.388;2022-09-12T07:56:08;4.30;;;1.75;;
50291;SDS011;36190;54.980;73.388;2022-09-12T07:58:36;9.43;;;2.15;;
50291;SDS011;36190;54.980;73.388;2022-09-12T08:01:05;1.70;;;1.30;;
50291;SDS011;36190;54.980;73.388;2022-09-12T08:03:34;4.00;;;1.50;;
50291;SDS011;36190;54.980;73.388;2022-09-12T08:06:03;4.25;;;1.90;;
50291;SDS011;36190;54.980;73.388;2022-09-12T08:08:31;3.42;;;1.70;;
50291;SDS011;36190;54.980;73.388;2022-09-12T08:11:00;5.22;;;1.90;;
50291;SDS011;36190;54.980;73.388;2022-09-12T08:13:30;7.25;;;1.90;;
50291;SDS011;36190;54.980;73.388;2022-09-12T08:16:00;3.40;;;1.70;;
50291;SDS011;36190;54.980;73.388;2022-09-12T08:18:28;3.15;;;1.60;;
50291;SDS011;36190;54.980;73.388;2022-09-12T08:20:57;1.35;;;1.25;;
50291;SDS011;36190;54.980;73.388;2022-09-12T08:23:25;5.32;;;1.80;;
50291;SDS011;36190;54.980;73.388;2022-09-12T08:25:56;3.70;;;1.60;;
50291;SDS011;36190;54.980;73.388;2022-09-12T08:28:26;9.38;;;3.63;;
50291;SDS011;36190;54.980;73.388;2022-09-12T08:30:58;5.60;;;1.92;;
50291;SDS011;36190;54.980;73.388;2022-09-12T08:33:26;7.35;;;2.30;;
50291;SDS011;36190;54.980;73.388;2022-09-12T08:36:01;7.30;;;1.98;;
50291;SDS011;36190;54.980;73.388;2022-09-12T08:38:32;2.45;;;1.25;;
50291;SDS011;36190;54.980;73.388;2022-09-12T08:41:01;4.57;;;1.70;;
50291;SDS011;36190;54.980;73.388;2022-09-12T08:43:40;4.13;;;2.10;;
50291;SDS011;36190;54.980;73.388;2022-09-12T08:46:17;6.63;;;2.00;;
50291;SDS011;36190;54.980;73.388;2022-09-12T08:48:47;4.30;;;1.70;;
50291;SDS011;36190;54.980;73.388;2022-09-12T08:51:15;4.55;;;2.10;;
50291;SDS011;36190;54.980;73.388;2022-09-12T08:53:45;5.47;;;1.90;;
50291;SDS011;36190;54.980;73.388;2022-09-12T08:56:16;5.13;;;1.90;;
50291;SDS011;36190;54.980;73.388;2022-09-12T08:58:44;5.00;;;2.00;;
50291;SDS011;36190;54.980;73.388;2022-09-12T09:01:14;8.60;;;2.20;;
50291;SDS011;36190;54.980;73.388;2022-09-12T09:04:02;9.77;;;2.75;;
50291;SDS011;36190;54.980;73.388;2022-09-12T09:06:49;4.00;;;2.10;;
50291;SDS011;36190;54.980;73.388;2022-09-12T09:09:26;3.63;;;2.00;;
50291;SDS011;36190;54.980;73.388;2022-09-12T09:12:05;7.03;;;2.30;;
50291;SDS011;36190;54.980;73.388;2022-09-12T09:14:42;8.20;;;2.60;;
50291;SDS011;36190;54.980;73.388;2022-09-12T09:17:21;6.53;;;2.33;;
50291;SDS011;36190;54.980;73.388;2022-09-12T09:19:55;5.07;;;1.92;;
50291;SDS011;36190;54.980;73.388;2022-09-12T09:22:33;6.15;;;2.10;;
50291;SDS011;36190;54.980;73.388;2022-09-12T09:25:08;6.78;;;2.05;;
50291;SDS011;36190;54.980;73.388;2022-09-12T09:27:44;8.00;;;2.63;;
50291;SDS011;36190;54.980;73.388;2022-09-12T09:30:17;3.47;;;1.73;;
50291;SDS011;36190;54.980;73.388;2022-09-12T09:32:47;6.68;;;1.83;;
50291;SDS011;36190;54.980;73.388;2022-09-12T09:35:19;10.30;;;2.28;;
50291;SDS011;36190;54.980;73.388;2022-09-12T09:38:00;10.70;;;2.70;;
50291;SDS011;36190;54.980;73.388;2022-09-12T09:40:44;10.52;;;2.38;;
50291;SDS011;36190;54.980;73.388;2022-09-12T09:43:24;14.50;;;3.00;;
50291;SDS011;36190;54.980;73.388;2022-09-12T09:45:54;12.77;;;2.83;;
50291;SDS011;36190;54.980;73.388;2022-09-12T09:48:24;9.82;;;2.15;;
50291;SDS011;36190;54.980;73.388;2022-09-12T09:50:55;9.10;;;2.47;;
50291;SDS011;36190;54.980;73.388;2022-09-12T09:53:32;12.88;;;2.33;;
50291;SDS011;36190;54.980;73.388;2022-09-12T09:56:06;5.45;;;2.17;;
50291;SDS011;36190;54.980;73.388;2022-09-12T09:58:37;10.93;;;3.08;;
50291;SDS011;36190;54.980;73.388;2022-09-12T10:01:11;12.52;;;2.63;;
50291;SDS011;36190;54.980;73.388;2022-09-12T10:03:46;7.13;;;2.30;;
50291;SDS011;36190;54.980;73.388;2022-09-12T10:06:25;7.25;;;2.22;;
50291;SDS011;36190;54.980;73.388;2022-09-12T10:09:04;8.02;;;2.15;;
50291;SDS011;36190;54.980;73.388;2022-09-12T10:11:46;4.40;;;1.98;;
50291;SDS011;36190;54.980;73.388;2022-09-12T10:17:23;12.32;;;3.15;;
50291;SDS011;36190;54.980;73.388;2022-09-12T10:19:53;6.85;;;2.10;;
50291;SDS011;36190;54.980;73.388;2022-09-12T10:22:22;15.10;;;3.05;;
50291;SDS011;36190;54.980;73.388;2022-09-12T10:24:51;11.45;;;2.95;;
50291;SDS011;36190;54.980;73.388;2022-09-12T10:27:21;12.40;;;2.78;;
50291;SDS011;36190;54.980;73.388;2022-09-12T10:29:52;10.27;;;3.03;;
50291;SDS011;36190;54.980;73.388;2022-09-12T10:32:24;9.15;;;3.10;;
50291;SDS011;36190;54.980;73.388;2022-09-12T10:34:55;12.10;;;3.25;;
50291;SDS011;36190;54.980;73.388;2022-09-12T10:37:28;8.10;;;2.28;;
50291;SDS011;36190;54.980;73.388;2022-09-12T10:39:58;7.97;;;2.22;;
50291;SDS011;36190;54.980;73.388;2022-09-12T10:42:45;12.65;;;2.88;;
50291;SDS011;36190;54.980;73.388;2022-09-12T10:45:20;10.48;;;2.50;;
50291;SDS011;36190;54.980;73.388;2022-09-12T10:47:52;9.85;;;2.75;;
50291;SDS011;36190;54.980;73.388;2022-09-12T10:50:26;13.80;;;3.55;;
50291;SDS011;36190;54.980;73.388;2022-09-12T10:53:11;9.00;;;2.40;;
50291;SDS011;36190;54.980;73.388;2022-09-12T10:55:41;7.75;;;2.78;;
50291;SDS011;36190;54.980;73.388;2022-09-12T10:58:28;8.43;;;2.63;;
50291;SDS011;36190;54.980;73.388;2022-09-12T11:01:17;9.30;;;2.63;;
50291;SDS011;36190;54.980;73.388;2022-09-12T11:04:01;7.35;;;2.53;;
50291;SDS011;36190;54.980;73.388;2022-09-12T11:06:42;11.35;;;2.40;;
50291;SDS011;36190;54.980;73.388;2022-09-12T11:09:19;6.43;;;2.50;;
50291;SDS011;36190;54.980;73.388;2022-09-12T11:11:56;10.93;;;3.03;;
50291;SDS011;36190;54.980;73.388;2022-09-12T11:14:35;11.48;;;2.80;;
50291;SDS011;36190;54.980;73.388;2022-09-12T11:17:16;9.00;;;2.60;;
50291;SDS011;36190;54.980;73.388;2022-09-12T11:20:02;11.52;;;3.00;;
50291;SDS011;36190;54.980;73.388;2022-09-12T11:22:54;16.45;;;3.17;;
50291;SDS011;36190;54.980;73.388;2022-09-12T11:25:31;9.98;;;2.67;;
50291;SDS011;36190;54.980;73.388;2022-09-12T11:28:14;12.32;;;3.13;;
50291;SDS011;36190;54.980;73.388;2022-09-12T11:31:04;18.15;;;3.63;;
50291;SDS011;36190;54.980;73.388;2022-09-12T11:33:50;17.05;;;3.80;;
50291;SDS011;36190;54.980;73.388;2022-09-12T11:36:24;18.65;;;4.35;;
50291;SDS011;36190;54.980;73.388;2022-09-12T11:39:02;15.48;;;3.90;;
50291;SDS011;36190;54.980;73.388;2022-09-12T11:41:39;13.98;;;3.53;;
50291;SDS011;36190;54.980;73.388;2022-09-12T11:44:13;16.83;;;4.40;;
50291;SDS011;36190;54.980;73.388;2022-09-12T11:46:44;17.58;;;3.83;;
50291;SDS011;36190;54.980;73.388;2022-09-12T11:49:16;12.27;;;3.10;;
50291;SDS011;36190;54.980;73.388;2022-09-12T11:51:51;17.88;;;4.10;;
50291;SDS011;36190;54.980;73.388;2022-09-12T11:54:24;14.45;;;4.00;;
50291;SDS011;36190;54.980;73.388;2022-09-12T11:57:00;13.63;;;3.58;;
50291;SDS011;36190;54.980;73.388;2022-09-12T11:59:39;13.80;;;3.05;;
50291;SDS011;36190;54.980;73.388;2022-09-12T12:02:16;18.13;;;5.30;;
50291;SDS011;36190;54.980;73.388;2022-09-12T12:05:04;17.17;;;4.50;;
50291;SDS011;36190;54.980;73.388;2022-09-12T12:10:31;12.02;;;3.22;;
50291;SDS011;36190;54.980;73.388;2022-09-12T12:13:03;16.30;;;3.45;;
50291;SDS011;36190;54.980;73.388;2022-09-12T12:15:34;10.80;;;3.17;;
50291;SDS011;36190;54.980;73.388;2022-09-12T12:18:04;13.90;;;3.05;;
50291;SDS011;36190;54.980;73.388;2022-09-12T12:20:33;8.98;;;2.75;;
50291;SDS011;36190;54.980;73.388;2022-09-12T12:23:03;9.85;;;2.60;;
50291;SDS011;36190;54.980;73.388;2022-09-12T12:25:40;7.45;;;2.63;;
50291;SDS011;36190;54.980;73.388;2022-09-12T12:31:18;10.70;;;2.58;;
50291;SDS011;36190;54.980;73.388;2022-09-12T12:33:52;10.98;;;2.80;;
50291;SDS011;36190;54.980;73.388;2022-09-12T12:36:38;10.55;;;2.70;;
50291;SDS011;36190;54.980;73.388;2022-09-12T12:51:42;10.32;;;2.70;;
50291;SDS011;36190;54.980;73.388;2022-09-12T12:57:35;5.38;;;2.00;;
50291;SDS011;36190;54.980;73.388;2022-09-12T13:03:05;11.20;;;3.00;;
50291;SDS011;36190;54.980;73.388;2022-09-12T13:05:44;10.38;;;2.90;;
50291;SDS011;36190;54.980;73.388;2022-09-12T13:08:24;9.00;;;2.63;;
50291;SDS011;36190;54.980;73.388;2022-09-12T13:10:57;12.52;;;3.28;;
50291;SDS011;36190;54.980;73.388;2022-09-12T13:13:27;9.38;;;3.42;;
50291;SDS011;36190;54.980;73.388;2022-09-12T13:15:58;13.07;;;3.65;;
50291;SDS011;36190;54.980;73.388;2022-09-12T13:18:28;13.05;;;3.42;;
50291;SDS011;36190;54.980;73.388;2022-09-12T13:21:07;10.35;;;3.00;;
50291;SDS011;36190;54.980;73.388;2022-09-12T13:23:37;17.02;;;3.83;;
50291;SDS011;36190;54.980;73.388;2022-09-12T13:26:09;12.52;;;3.38;;
50291;SDS011;36190;54.980;73.388;2022-09-12T13:28:38;28.38;;;7.35;;
50291;SDS011;36190;54.980;73.388;2022-09-12T13:31:08;29.35;;;9.77;;
50291;SDS011;36190;54.980;73.388;2022-09-12T13:33:42;20.33;;;6.03;;
50291;SDS011;36190;54.980;73.388;2022-09-12T13:36:32;26.10;;;8.77;;
50291;SDS011;36190;54.980;73.388;2022-09-12T13:39:19;87.25;;;29.80;;
50291;SDS011;36190;54.980;73.388;2022-09-12T13:41:53;71.53;;;23.13;;
50291;SDS011;36190;54.980;73.388;2022-09-12T13:44:44;51.40;;;17.40;;
50291;SDS011;36190;54.980;73.388;2022-09-12T13:47:15;104.22;;;37.90;;
50291;SDS011;36190;54.980;73.388;2022-09-12T13:49:50;31.20;;;12.60;;
50291;SDS011;36190;54.980;73.388;2022-09-12T13:52:20;24.88;;;7.47;;
50291;SDS011;36190;54.980;73.388;2022-09-12T13:54:51;18.13;;;6.82;;
50291;SDS011;36190;54.980;73.388;2022-09-12T13:57:28;14.32;;;4.50;;
50291;SDS011;36190;54.980;73.388;2022-09-12T13:59:57;12.82;;;5.05;;
50291;SDS011;36190;54.980;73.388;2022-09-12T14:02:27;19.85;;;6.50;;
50291;SDS011;36190;54.980;73.388;2022-09-12T14:04:57;20.35;;;5.10;;
50291;SDS011;36190;54.980;73.388;2022-09-12T14:07:36;14.75;;;4.90;;
50291;SDS011;36190;54.980;73.388;2022-09-12T14:10:07;19.20;;;5.18;;
50291;SDS011;36190;54.980;73.388;2022-09-12T14:12:40;18.50;;;5.00;;
50291;SDS011;36190;54.980;73.388;2022-09-12T14:15:15;12.82;;;4.80;;
50291;SDS011;36190;54.980;73.388;2022-09-12T14:17:47;10.20;;;4.25;;
50291;SDS011;36190;54.980;73.388;2022-09-12T14:20:18;11.52;;;4.03;;
50291;SDS011;36190;54.980;73.388;2022-09-12T14:22:47;13.43;;;4.60;;
50291;SDS011;36190;54.980;73.388;2022-09-12T14:25:17;17.85;;;4.40;;
50291;SDS011;36190;54.980;73.388;2022-09-12T14:27:47;15.85;;;4.82;;
50291;SDS011;36190;54.980;73.388;2022-09-12T14:30:21;22.73;;;8.18;;
50291;SDS011;36190;54.980;73.388;2022-09-12T14:33:01;18.02;;;7.22;;
50291;SDS011;36190;54.980;73.388;2022-09-12T14:35:31;34.28;;;11.32;;
50291;SDS011;36190;54.980;73.388;2022-09-12T14:38:05;28.63;;;12.55;;
50291;SDS011;36190;54.980;73.388;2022-09-12T14:40:39;54.45;;;21.00;;
50291;SDS011;36190;54.980;73.388;2022-09-12T14:43:15;41.28;;;17.92;;
50291;SDS011;36190;54.980;73.388;2022-09-12T14:45:53;47.47;;;19.40;;
50291;SDS011;36190;54.980;73.388;2022-09-12T14:48:23;46.65;;;20.17;;
50291;SDS011;36190;54.980;73.388;2022-09-12T14:50:54;51.28;;;21.65;;
50291;SDS011;36190;54.980;73.388;2022-09-12T14:53:23;45.67;;;21.05;;
50291;SDS011;36190;54.980;73.388;2022-09-12T14:55:57;45.35;;;22.42;;
50291;SDS011;36190;54.980;73.388;2022-09-12T14:58:31;51.70;;;26.00;;
50291;SDS011;36190;54.980;73.388;2022-09-12T15:00:59;50.40;;;25.88;;
50291;SDS011;36190;54.980;73.388;2022-09-12T15:03:29;74.60;;;37.45;;
50291;SDS011;36190;54.980;73.388;2022-09-12T15:06:00;72.28;;;42.63;;
50291;SDS011;36190;54.980;73.388;2022-09-12T15:08:29;78.32;;;43.45;;
50291;SDS011;36190;54.980;73.388;2022-09-12T15:10:57;123.47;;;90.70;;
50291;SDS011;36190;54.980;73.388;2022-09-12T15:13:26;78.35;;;50.80;;
50291;SDS011;36190;54.980;73.388;2022-09-12T15:15:55;78.25;;;46.15;;
50291;SDS011;36190;54.980;73.388;2022-09-12T15:18:24;84.13;;;58.95;;
50291;SDS011;36190;54.980;73.388;2022-09-12T15:20:53;69.15;;;34.63;;
50291;SDS011;36190;54.980;73.388;2022-09-12T15:23:28;55.20;;;32.05;;
50291;SDS011;36190;54.980;73.388;2022-09-12T15:25:58;49.38;;;26.77;;
50291;SDS011;36190;54.980;73.388;2022-09-12T15:28:26;70.53;;;39.22;;
50291;SDS011;36190;54.980;73.388;2022-09-12T15:30:54;58.03;;;31.55;;
50291;SDS011;36190;54.980;73.388;2022-09-12T15:33:24;48.53;;;26.08;;
50291;SDS011;36190;54.980;73.388;2022-09-12T15:35:51;56.30;;;23.23;;
50291;SDS011;36190;54.980;73.388;2022-09-12T15:38:19;37.55;;;16.02;;